Time;durP1;ratioP1;P1;durP2;ratioP2;P2;SDS_P1;SDS_P2;PMS_P1;PMS_P2;Temp;Humidity;BMP_temperature;BMP_pressure;BME280_temperature;BME280_humidity;BME280_pressure;Samples;Min_cycle;Max_cycle;Signal;HPM_P1;HPM_P2
2020/12/27 00:02:08;;;;;;;;;;;;;;;17.08;58.02;101289.88;5028299;28;1977;-73
2020/12/27 00:04:35;;;;;;;;;;;;;;;17.07;57.99;101290.78;5020922;28;986;-73
2020/12/27 00:07:07;;;;;;;;;;;;;;;17.07;58.20;101299.56;5008735;28;1280;-72
2020/12/27 00:09:37;;;;;;;;;;;;;;;17.02;57.86;101295.41;5004203;28;1038;-71
2020/12/27 00:12:03;;;;;;;;;;;;;;;17.02;58.38;101293.63;5010054;28;1300;-71
2020/12/27 00:14:30;;;;;;;;;;;;;;;16.98;57.81;101278.88;5027821;28;1040;-71
2020/12/27 00:17:07;;;;;;;;;;;;;;;16.99;57.90;101283.22;5010115;28;1363;-72
2020/12/27 00:19:33;;;;;;;;;;;;;;;16.99;58.01;101271.84;5027822;28;977;-72
2020/12/27 00:21:59;;;;;;;;;;;;;;;16.97;58.13;101278.91;5028427;28;1938;-72
2020/12/27 00:24:26;;;;;;;;;;;;;;;16.96;57.83;101279.88;4999663;28;997;-72
2020/12/27 00:26:52;;;;;;;;;;;;;;;16.94;57.90;101262.34;5008155;28;1301;-71
2020/12/27 00:29:18;;;;;;;;;;;;;;;16.93;57.75;101263.25;5007900;28;1017;-72
2020/12/27 00:31:45;;;;;;;;;;;;;;;16.93;57.92;101260.63;5007059;28;1247;-71
2020/12/27 00:34:11;;;;;;;;;;;;;;;16.89;57.33;101259.06;4999655;28;1473;-72
2020/12/27 00:36:37;;;;;;;;;;;;;;;16.91;57.80;101248.44;5027786;28;1374;-71
2020/12/27 00:39:06;;;;;;;;;;;;;;;16.89;57.55;101258.19;5009668;28;998;-71
2020/12/27 00:41:33;;;;;;;;;;;;;;;16.88;57.86;101254.72;5027397;28;1296;-72
2020/12/27 00:43:59;;;;;;;;;;;;;;;16.89;57.45;101252.94;5027236;28;1910;-72
2020/12/27 00:46:26;;;;;;;;;;;;;;;16.89;58.31;101258.19;5027806;28;1354;-70
2020/12/27 00:48:52;;;;;;;;;;;;;;;16.87;57.96;101249.53;5009950;28;1126;-69
2020/12/27 00:51:25;;;;;;;;;;;;;;;16.87;57.93;101249.53;4993878;28;1273;-70
2020/12/27 00:53:52;;;;;;;;;;;;;;;16.85;57.71;101251.34;5009452;28;1219;-71
2020/12/27 00:56:18;;;;;;;;;;;;;;;16.82;57.83;101244.44;5027347;28;1272;-70
2020/12/27 00:58:44;;;;;;;;;;;;;;;16.83;57.64;101240.91;5027178;28;1103;-70
2020/12/27 01:01:14;;;;;;;;;;;;;;;16.83;58.04;101240.91;5009247;28;1207;-71
2020/12/27 01:03:41;;;;;;;;;;;;;;;16.81;57.38;101239.25;5027102;28;1910;-71
2020/12/27 01:06:08;;;;;;;;;;;;;;;16.82;57.65;101218.13;5027087;28;1046;-71
2020/12/27 01:08:34;;;;;;;;;;;;;;;16.81;57.59;101212.94;5009098;28;1189;-71
2020/12/27 01:11:04;;;;;;;;;;;;;;;16.78;57.52;101203.38;5026975;28;1153;-70
2020/12/27 01:13:30;;;;;;;;;;;;;;;16.76;57.90;101194.69;5027257;28;1291;-71
2020/12/27 01:15:59;;;;;;;;;;;;;;;16.76;57.86;101181.53;4989070;28;1144;-72
2020/12/27 01:18:25;;;;;;;;;;;;;;;16.75;57.75;101186.84;4979814;28;1218;-71
2020/12/27 01:20:52;;;;;;;;;;;;;;;16.74;57.57;101193.91;5010712;28;1044;-72
2020/12/27 01:23:18;;;;;;;;;;;;;;;16.72;57.24;101197.50;5028461;28;1910;-72
2020/12/27 01:25:44;;;;;;;;;;;;;;;16.72;57.65;101192.25;5010750;28;1076;-72
2020/12/27 01:28:11;;;;;;;;;;;;;;;16.71;57.39;101191.41;5028400;28;1224;-71
2020/12/27 01:30:43;;;;;;;;;;;;;;;16.72;57.43;101192.25;5027642;28;1198;-72
2020/12/27 01:33:10;;;;;;;;;;;;;;;16.70;57.93;101194.94;5028335;28;1236;-72
2020/12/27 01:35:36;;;;;;;;;;;;;;;16.68;57.40;101188.91;5028339;28;1048;-71
2020/12/27 01:38:03;;;;;;;;;;;;;;;16.68;57.49;101195.94;5010449;28;1528;-72
2020/12/27 01:40:29;;;;;;;;;;;;;;;16.66;57.55;101182.84;5026902;28;1113;-72
2020/12/27 01:42:58;;;;;;;;;;;;;;;16.64;57.27;101182.06;5028258;28;1902;-69
2020/12/27 01:45:26;;;;;;;;;;;;;;;16.65;57.42;101180.28;5031451;28;790;-72
2020/12/27 01:47:52;;;;;;;;;;;;;;;16.63;57.37;101175.06;5032201;28;1428;-70
2020/12/27 01:50:19;;;;;;;;;;;;;;;16.61;57.05;101176.91;5032225;28;791;-71
2020/12/27 01:52:45;;;;;;;;;;;;;;;16.60;57.06;101162.03;5032496;28;1252;-71
2020/12/27 01:55:12;;;;;;;;;;;;;;;16.58;57.28;101158.63;5032053;28;1159;-70
2020/12/27 01:57:57;;;;;;;;;;;;;;;16.59;57.37;101165.63;5031929;28;1267;-70
2020/12/27 02:00:23;;;;;;;;;;;;;;;16.59;57.18;101175.28;5031869;28;838;-71
2020/12/27 02:02:49;;;;;;;;;;;;;;;16.58;57.07;101173.56;5032234;28;1973;-71
2020/12/27 02:05:16;;;;;;;;;;;;;;;16.58;56.77;101170.91;5031808;28;850;-72
2020/12/27 02:07:43;;;;;;;;;;;;;;;16.58;57.05;101178.81;5032166;28;1319;-71
2020/12/27 02:10:11;;;;;;;;;;;;;;;16.54;57.22;101188.59;5031681;28;806;-67
2020/12/27 02:12:37;;;;;;;;;;;;;;;16.54;57.13;101175.44;5014117;28;1383;-71
2020/12/27 02:15:04;;;;;;;;;;;;;;;16.52;57.11;101174.63;5013630;28;1499;-71
2020/12/27 02:17:30;;;;;;;;;;;;;;;16.54;56.91;101164.94;5031928;28;1239;-71
2020/12/27 02:19:56;;;;;;;;;;;;;;;16.52;57.01;101164.13;5013657;28;1180;-71
2020/12/27 02:22:23;;;;;;;;;;;;;;;16.52;57.04;101182.53;5031715;28;1902;-71
2020/12/27 02:24:49;;;;;;;;;;;;;;;16.50;57.07;101159.84;5031386;28;1127;-71
2020/12/27 02:27:15;;;;;;;;;;;;;;;16.49;57.16;101185.28;5031714;28;1271;-71
2020/12/27 02:29:41;;;;;;;;;;;;;;;16.49;56.89;101174.75;5031293;28;1254;-72
2020/12/27 02:32:07;;;;;;;;;;;;;;;16.47;57.50;101139.78;5031546;28;1276;-70
2020/12/27 02:34:34;;;;;;;;;;;;;;;16.46;57.13;101148.59;5031301;28;847;-70
2020/12/27 02:37:00;;;;;;;;;;;;;;;16.47;57.53;101149.44;5031310;28;1339;-71
2020/12/27 02:39:26;;;;;;;;;;;;;;;16.46;57.47;101152.97;5031104;28;760;-72
2020/12/27 02:41:52;;;;;;;;;;;;;;;16.44;57.24;101147.81;5030468;28;1374;-71
2020/12/27 02:44:18;;;;;;;;;;;;;;;16.44;57.01;101139.91;5031259;28;787;-71
2020/12/27 02:46:45;;;;;;;;;;;;;;;16.42;57.22;101153.09;4997179;28;1319;-72
2020/12/27 02:49:11;;;;;;;;;;;;;;;16.42;57.21;101144.38;5031328;28;1685;-72
2020/12/27 02:51:37;;;;;;;;;;;;;;;16.39;56.89;101137.47;5031208;28;1300;-72
2020/12/27 02:54:04;;;;;;;;;;;;;;;16.41;57.06;101126.91;5031056;28;822;-72
2020/12/27 02:56:30;;;;;;;;;;;;;;;16.39;57.18;101137.47;5030150;28;1260;-70
2020/12/27 02:59:00;;;;;;;;;;;;;;;16.39;57.18;101126.94;5031075;28;834;-71
2020/12/27 03:01:26;;;;;;;;;;;;;;;16.40;57.24;101123.41;5031199;28;1250;-71
2020/12/27 03:03:53;;;;;;;;;;;;;;;16.38;57.28;101113.88;5031011;28;2068;-71
2020/12/27 03:06:28;;;;;;;;;;;;;;;16.37;57.31;101104.25;5013127;28;1346;-72
2020/12/27 03:08:55;;;;;;;;;;;;;;;16.35;57.26;101090.34;5030883;28;1095;-71
2020/12/27 03:11:24;;;;;;;;;;;;;;;16.35;57.15;101079.81;5030694;28;1363;-71
2020/12/27 03:13:51;;;;;;;;;;;;;;;16.34;57.17;101078.09;5030145;28;779;-71
2020/12/27 03:16:18;;;;;;;;;;;;;;;16.33;57.09;101065.88;5030145;28;1302;-72
2020/12/27 03:18:45;;;;;;;;;;;;;;;16.32;57.15;101059.75;5012321;28;1164;-71
2020/12/27 03:21:11;;;;;;;;;;;;;;;16.30;56.98;101030.06;5012836;28;1141;-71
2020/12/27 03:23:38;;;;;;;;;;;;;;;16.29;56.95;101020.44;5012190;28;1974;-70
2020/12/27 03:26:04;;;;;;;;;;;;;;;16.29;56.92;101023.06;5012496;28;1142;-70
2020/12/27 03:28:30;;;;;;;;;;;;;;;16.31;56.94;101007.25;5030210;28;1256;-70
2020/12/27 03:30:56;;;;;;;;;;;;;;;16.30;56.71;101013.41;5029794;28;1047;-70
2020/12/27 03:33:23;;;;;;;;;;;;;;;16.28;57.00;101005.63;5012153;28;1328;-70
2020/12/27 03:35:49;;;;;;;;;;;;;;;16.29;57.12;101024.88;5030269;28;1043;-70
2020/12/27 03:38:16;;;;;;;;;;;;;;;16.26;57.03;101015.31;5030417;28;1221;-70
2020/12/27 03:40:42;;;;;;;;;;;;;;;16.26;57.13;101014.50;5030158;28;1263;-70
2020/12/27 03:43:08;;;;;;;;;;;;;;;16.26;57.07;100996.09;5029920;28;1977;-69
2020/12/27 03:45:35;;;;;;;;;;;;;;;16.25;56.91;100978.59;5029911;28;1145;-69
2020/12/27 03:48:01;;;;;;;;;;;;;;;16.24;56.78;100969.00;5029684;28;1328;-70
2020/12/27 03:50:27;;;;;;;;;;;;;;;16.22;56.80;100949.81;5030197;28;775;-70
2020/12/27 03:52:54;;;;;;;;;;;;;;;16.23;56.95;100941.03;5029883;28;1232;-71
2020/12/27 03:55:20;;;;;;;;;;;;;;;16.23;57.32;100935.75;5012411;28;1238;-71
2020/12/27 03:57:47;;;;;;;;;;;;;;;16.22;57.12;100945.41;5012343;28;1607;-71
2020/12/27 04:00:13;;;;;;;;;;;;;;;16.21;57.11;100954.22;5029982;28;965;-71
2020/12/27 04:02:39;;;;;;;;;;;;;;;16.22;57.35;100952.44;5030303;28;1977;-71
2020/12/27 04:05:06;;;;;;;;;;;;;;;16.20;57.41;100949.03;5012148;28;1196;-70
2020/12/27 04:07:32;;;;;;;;;;;;;;;16.19;57.54;100942.91;5030204;28;1268;-71
2020/12/27 04:10:13;;;;;;;;;;;;;;;16.18;57.30;100929.81;5030077;28;936;-71
2020/12/27 04:12:40;;;;;;;;;;;;;;;16.17;57.35;100920.25;5029956;28;1264;-71
2020/12/27 04:15:06;;;;;;;;;;;;;;;16.17;57.12;100907.94;5029451;28;779;-71
2020/12/27 04:17:33;;;;;;;;;;;;;;;16.17;57.29;100909.75;5011793;28;1315;-71
2020/12/27 04:19:59;;;;;;;;;;;;;;;16.14;57.54;100915.97;5029336;28;839;-71
2020/12/27 04:22:25;;;;;;;;;;;;;;;16.15;57.55;100907.16;5029459;28;1910;-70
2020/12/27 04:24:51;;;;;;;;;;;;;;;16.14;57.38;100902.00;5029123;28;775;-70
2020/12/27 04:27:17;;;;;;;;;;;;;;;16.14;57.60;100894.09;5029506;28;1384;-70
2020/12/27 04:29:43;;;;;;;;;;;;;;;16.13;57.11;100885.38;5029101;28;830;-70
2020/12/27 04:32:10;;;;;;;;;;;;;;;16.12;57.03;100888.91;5029469;28;1390;-73
2020/12/27 04:34:36;;;;;;;;;;;;;;;16.10;57.10;100882.88;5028879;28;799;-73
2020/12/27 04:37:20;;;;;;;;;;;;;;;16.12;57.17;100888.91;5028925;28;1422;-73
2020/12/27 04:39:46;;;;;;;;;;;;;;;16.13;57.08;100887.13;5028347;28;1112;-73
2020/12/27 04:42:12;;;;;;;;;;;;;;;16.10;57.19;100901.28;5010599;28;1983;-71
2020/12/27 04:44:39;;;;;;;;;;;;;;;16.09;57.30;100896.06;5029366;28;786;-72
2020/12/27 04:47:05;;;;;;;;;;;;;;;16.09;57.40;100896.06;5029141;28;1358;-72
2020/12/27 04:49:33;;;;;;;;;;;;;;;16.08;57.48;100894.38;5028446;28;1419;-71
2020/12/27 04:52:02;;;;;;;;;;;;;;;16.08;57.21;100894.38;5029153;28;1402;-71
2020/12/27 04:54:29;;;;;;;;;;;;;;;16.05;57.25;100884.81;5011095;28;1160;-71
2020/12/27 04:56:56;;;;;;;;;;;;;;;16.06;57.05;100894.44;5029081;28;1260;-70
2020/12/27 04:59:22;;;;;;;;;;;;;;;16.06;56.88;100880.44;5028753;28;807;-71
2020/12/27 05:01:51;;;;;;;;;;;;;;;16.04;57.16;100874.41;5028967;28;1393;-70
2020/12/27 05:04:23;;;;;;;;;;;;;;;16.02;57.30;100871.00;5028838;28;1991;-71
2020/12/27 05:06:49;;;;;;;;;;;;;;;16.04;57.01;100871.78;5029003;28;1248;-72
2020/12/27 05:09:15;;;;;;;;;;;;;;;16.02;57.01;100853.44;5028674;28;814;-72
2020/12/27 05:11:43;;;;;;;;;;;;;;;16.01;57.38;100854.38;5028977;28;1268;-71
2020/12/27 05:14:09;;;;;;;;;;;;;;;15.98;57.14;100845.75;5011102;28;1059;-72
2020/12/27 05:16:36;;;;;;;;;;;;;;;16.00;57.38;100851.78;5028719;28;1339;-71
2020/12/27 05:19:02;;;;;;;;;;;;;;;15.99;57.31;100855.38;5029962;28;1122;-71
2020/12/27 05:21:37;;;;;;;;;;;;;;;15.98;57.82;100858.91;5032876;28;1276;-70
2020/12/27 05:24:04;;;;;;;;;;;;;;;15.98;57.68;100857.13;5032808;28;1910;-70
2020/12/27 05:26:32;;;;;;;;;;;;;;;15.99;57.51;100858.00;5014911;28;1272;-71
2020/12/27 05:28:58;;;;;;;;;;;;;;;16.00;57.35;100857.03;5014697;28;1200;-70
2020/12/27 05:31:27;;;;;;;;;;;;;;;15.99;57.36;100852.75;5032639;28;1272;-70
2020/12/27 05:33:53;;;;;;;;;;;;;;;15.96;57.62;100851.06;5032595;28;1108;-70
2020/12/27 05:36:20;;;;;;;;;;;;;;;15.95;57.50;100861.66;5032694;28;1239;-70
2020/12/27 05:38:47;;;;;;;;;;;;;;;15.95;57.51;100852.00;5032580;28;824;-70
2020/12/27 05:41:14;;;;;;;;;;;;;;;15.95;57.63;100856.41;5032497;28;1291;-70
2020/12/27 05:43:40;;;;;;;;;;;;;;;15.93;57.63;100858.25;5014728;28;1906;-72
2020/12/27 05:46:07;;;;;;;;;;;;;;;15.93;57.69;100853.84;5014801;28;892;-70
2020/12/27 05:48:33;;;;;;;;;;;;;;;15.90;57.65;100853.13;5032060;28;1394;-71
2020/12/27 05:51:03;;;;;;;;;;;;;;;15.92;57.49;100852.16;5014365;28;1190;-71
2020/12/27 05:53:36;;;;;;;;;;;;;;;15.92;57.42;100846.03;5032138;28;1276;-71
2020/12/27 05:56:02;;;;;;;;;;;;;;;15.91;57.51;100844.31;5032148;28;1127;-71
2020/12/27 05:58:31;;;;;;;;;;;;;;;15.91;57.96;100849.56;5032089;28;1153;-70
2020/12/27 06:00:58;;;;;;;;;;;;;;;15.87;57.74;100845.38;5032016;28;1046;-70
2020/12/27 06:03:25;;;;;;;;;;;;;;;15.87;57.78;100848.03;5031828;28;1902;-71
2020/12/27 06:05:54;;;;;;;;;;;;;;;15.89;57.88;100847.03;5031797;28;1050;-71
2020/12/27 06:08:30;;;;;;;;;;;;;;;15.89;57.82;100848.78;5014633;28;1341;-71
2020/12/27 06:10:58;;;;;;;;;;;;;;;15.87;57.89;100842.75;5014120;28;1054;-71
2020/12/27 06:13:30;;;;;;;;;;;;;;;15.85;57.87;100835.78;5013859;28;1325;-71
2020/12/27 06:15:57;;;;;;;;;;;;;;;15.86;57.63;100831.41;5013888;28;1107;-72
2020/12/27 06:18:27;;;;;;;;;;;;;;;15.85;57.55;100829.69;5030226;28;1236;-71
2020/12/27 06:21:03;;;;;;;;;;;;;;;15.84;57.57;100826.19;5031637;28;1139;-72
2020/12/27 06:23:30;;;;;;;;;;;;;;;15.83;57.62;100821.88;5031433;28;1899;-71
2020/12/27 06:25:58;;;;;;;;;;;;;;;15.85;57.65;100819.16;5031558;28;1141;-70
2020/12/27 06:28:24;;;;;;;;;;;;;;;15.82;57.49;100820.16;5031469;28;1220;-68
2020/12/27 06:30:54;;;;;;;;;;;;;;;15.80;57.87;100821.16;5030433;28;1094;-69
2020/12/27 06:33:23;;;;;;;;;;;;;;;15.84;57.58;100825.34;5014006;28;1225;-71
2020/12/27 06:35:49;;;;;;;;;;;;;;;15.82;57.78;100827.19;5031495;28;887;-71
2020/12/27 06:38:23;;;;;;;;;;;;;;;15.82;57.59;100825.41;5031461;28;1310;-71
2020/12/27 06:40:59;;;;;;;;;;;;;;;15.79;57.72;100820.28;5031900;28;1298;-71
2020/12/27 06:43:25;;;;;;;;;;;;;;;15.78;57.84;100823.84;5031557;28;1975;-70
2020/12/27 06:46:18;;;;;;;;;;;;;;;15.79;57.78;100817.66;5031539;28;1134;-72
2020/12/27 06:48:44;;;;;;;;;;;;;;;15.79;58.13;100816.81;5014963;28;1544;-70
2020/12/27 06:51:11;;;;;;;;;;;;;;;15.78;58.03;100805.44;4996021;28;1612;-72
2020/12/27 06:53:44;;;;;;;;;;;;;;;15.78;57.87;100809.84;4993709;28;1238;-71
2020/12/27 06:56:13;;;;;;;;;;;;;;;15.75;57.75;100808.22;5011389;28;1109;-72
2020/12/27 06:58:40;;;;;;;;;;;;;;;15.75;57.87;100808.22;5011165;28;846;-72
2020/12/27 07:01:12;;;;;;;;;;;;;;;15.77;57.76;100801.13;5009698;28;1335;-73
2020/12/27 07:03:39;;;;;;;;;;;;;;;15.78;57.84;100801.97;5010985;28;1971;-72
2020/12/27 07:06:21;;;;;;;;;;;;;;;15.75;57.62;100792.44;5011095;28;1211;-72
2020/12/27 07:09:00;;;;;;;;;;;;;;;15.71;57.72;100785.66;4995139;28;831;-72
2020/12/27 07:11:31;;;;;;;;;;;;;;;15.74;57.76;100777.63;4993150;28;1281;-72
2020/12/27 07:13:58;;;;;;;;;;;;;;;15.71;57.89;100764.63;5010765;28;807;-72
2020/12/27 07:16:34;;;;;;;;;;;;;;;15.71;57.84;100779.53;4993229;28;1359;-71
2020/12/27 07:19:03;;;;;;;;;;;;;;;15.71;57.91;100777.75;5010726;28;1179;-71
2020/12/27 07:21:30;;;;;;;;;;;;;;;15.70;57.96;100773.41;4993086;28;1276;-71
2020/12/27 07:24:06;;;;;;;;;;;;;;;15.69;57.67;100766.44;4993053;28;1927;-69
2020/12/27 07:26:33;;;;;;;;;;;;;;;15.70;57.58;100772.56;5010733;28;1216;-70
2020/12/27 07:29:05;;;;;;;;;;;;;;;15.69;57.55;100771.69;4993039;28;1061;-72
2020/12/27 07:31:35;;;;;;;;;;;;;;;15.70;57.64;100778.69;4992657;28;1357;-72
2020/12/27 07:34:02;;;;;;;;;;;;;;;15.69;57.47;100782.22;5010497;28;842;-70
2020/12/27 07:36:28;;;;;;;;;;;;;;;15.67;57.67;100791.09;5008908;28;1376;-71
2020/12/27 07:39:02;;;;;;;;;;;;;;;15.68;57.82;100775.28;5010606;28;791;-72
2020/12/27 07:41:37;;;;;;;;;;;;;;;15.67;57.68;100756.94;5010057;28;1343;-72
2020/12/27 07:44:09;;;;;;;;;;;;;;;15.69;58.19;100769.09;5010298;28;1914;-70
2020/12/27 07:46:36;;;;;;;;;;;;;;;15.79;58.08;100759.88;5010458;28;1343;-71
2020/12/27 07:49:02;;;;;;;;;;;;;;;15.75;57.53;100750.44;5008328;28;1583;-71
2020/12/27 07:51:29;;;;;;;;;;;;;;;15.73;57.57;100736.53;5010201;28;1409;-71
2020/12/27 07:53:58;;;;;;;;;;;;;;;15.70;57.65;100749.78;4992194;28;1142;-70
2020/12/27 07:56:25;;;;;;;;;;;;;;;15.70;57.80;100738.44;5008574;28;1221;-71
2020/12/27 07:59:01;;;;;;;;;;;;;;;15.70;58.13;100744.53;5010293;28;1113;-72
2020/12/27 08:01:31;;;;;;;;;;;;;;;15.69;57.91;100745.44;5009932;28;1445;-71
2020/12/27 08:03:58;;;;;;;;;;;;;;;15.68;58.19;100749.00;5010091;28;1902;-71
2020/12/27 08:06:25;;;;;;;;;;;;;;;15.69;58.17;100745.44;5008222;28;1281;-70
2020/12/27 08:09:18;;;;;;;;;;;;;;;15.68;57.98;100738.50;5010197;28;1107;-70
2020/12/27 08:11:44;;;;;;;;;;;;;;;15.67;57.88;100742.03;4988408;28;1258;-70
2020/12/27 08:14:12;;;;;;;;;;;;;;;15.66;58.04;100753.47;4992308;28;1229;-70
2020/12/27 08:16:40;;;;;;;;;;;;;;;15.68;57.77;100753.41;5009824;28;1323;-72
2020/12/27 08:19:11;;;;;;;;;;;;;;;15.69;57.90;100734.09;5009712;28;995;-71
2020/12/27 08:21:38;;;;;;;;;;;;;;;15.67;57.78;100736.78;5009619;28;1225;-73
2020/12/27 08:24:16;;;;;;;;;;;;;;;15.69;57.97;100752.47;4992002;28;1903;-72
2020/12/27 08:26:44;;;;;;;;;;;;;;;15.63;58.02;100743.09;5009470;28;1169;-72
2020/12/27 08:29:14;;;;;;;;;;;;;;;15.68;57.79;100743.75;4991966;28;920;-73
2020/12/27 08:31:41;;;;;;;;;;;;;;;15.66;57.93;100742.94;4975298;28;1249;-74
2020/12/27 08:34:09;;;;;;;;;;;;;;;15.65;57.80;100740.41;4991972;28;912;-74
2020/12/27 08:36:35;;;;;;;;;;;;;;;15.66;57.98;100739.47;5008043;28;1190;-74
2020/12/27 08:39:03;;;;;;;;;;;;;;;15.67;58.05;100736.78;4991730;28;1215;-73
2020/12/27 08:41:31;;;;;;;;;;;;;;;15.68;58.25;100719.25;5009659;28;1304;-72
2020/12/27 08:44:16;;;;;;;;;;;;;;;15.66;58.16;100714.06;4991752;28;1974;-73
2020/12/27 08:46:47;;;;;;;;;;;;;;;15.65;58.46;100712.38;4991873;28;1249;-74
2020/12/27 08:49:19;;;;;;;;;;;;;;;15.64;58.63;100713.28;5009481;28;1547;-71
2020/12/27 08:51:49;;;;;;;;;;;;;;;15.65;58.27;100707.13;5009421;28;1228;-72
2020/12/27 08:54:17;;;;;;;;;;;;;;;15.66;58.40;100710.59;5009439;28;1039;-72
2020/12/27 08:56:43;;;;;;;;;;;;;;;15.89;58.34;100714.81;5009326;28;1262;-74
2020/12/27 08:59:16;;;;;;;;;;;;;;;15.84;56.25;100708.00;5009517;28;1033;-73
2020/12/27 09:01:42;;;;;;;;;;;;;;;15.70;56.60;100714.78;5007802;28;1450;-72
2020/12/27 09:04:19;;;;;;;;;;;;;;;15.54;56.06;100711.97;5008515;28;1983;-73
2020/12/27 09:06:54;;;;;;;;;;;;;;;15.55;57.31;100715.47;5009573;28;1363;-74
2020/12/27 09:09:20;;;;;;;;;;;;;;;15.56;58.75;100707.53;5009631;28;1505;-73
2020/12/27 09:11:47;;;;;;;;;;;;;;;15.68;58.31;100714.88;5009310;28;1284;-72
2020/12/27 09:14:32;;;;;;;;;;;;;;;15.75;58.24;100712.81;4991673;28;1058;-71
2020/12/27 09:17:06;;;;;;;;;;;;;;;15.85;58.18;100708.84;5008934;28;1249;-74
2020/12/27 09:19:34;;;;;;;;;;;;;;;15.90;57.98;100709.47;5010357;28;1222;-70
2020/12/27 09:22:04;;;;;;;;;;;;;;;16.04;57.90;100703.59;5009052;28;1217;-73
2020/12/27 09:24:31;;;;;;;;;;;;;;;16.16;58.25;100703.03;5008544;28;1914;-74
2020/12/27 09:27:07;;;;;;;;;;;;;;;16.28;58.12;100700.69;5008866;28;1302;-75
2020/12/27 09:29:34;;;;;;;;;;;;;;;16.53;57.56;100689.00;4991125;28;890;-73
2020/12/27 09:32:08;;;;;;;;;;;;;;;16.76;56.99;100671.19;4991075;28;1217;-74
2020/12/27 09:34:38;;;;;;;;;;;;;;;16.90;56.33;100666.06;5008640;28;1401;-74
2020/12/27 09:37:15;;;;;;;;;;;;;;;17.02;56.33;100666.41;5008458;28;1233;-73
2020/12/27 09:39:41;;;;;;;;;;;;;;;17.13;56.23;100661.44;5008941;28;1047;-72
2020/12/27 09:42:19;;;;;;;;;;;;;;;17.21;56.07;100659.25;5006865;28;1427;-70
2020/12/27 09:44:45;;;;;;;;;;;;;;;17.25;56.13;100653.75;5008724;28;1989;-70
2020/12/27 09:47:20;;;;;;;;;;;;;;;17.30;56.04;100649.09;5008747;28;1324;-72
2020/12/27 09:49:57;;;;;;;;;;;;;;;17.36;56.09;100640.00;5007461;28;909;-70
2020/12/27 09:52:23;;;;;;;;;;;;;;;17.48;56.12;100631.47;5008221;28;1367;-71
2020/12/27 09:54:52;;;;;;;;;;;;;;;17.47;55.88;100629.78;5006813;28;1301;-73
2020/12/27 09:57:21;;;;;;;;;;;;;;;17.46;56.00;100628.06;5007612;28;1596;-73
2020/12/27 09:59:51;;;;;;;;;;;;;;;17.47;56.25;100621.88;5008080;28;1042;-72
2020/12/27 10:02:18;;;;;;;;;;;;;;;17.49;56.13;100609.47;5006179;28;1626;-69
2020/12/27 10:04:44;;;;;;;;;;;;;;;17.48;56.58;100605.13;5007866;28;1914;-69
2020/12/27 10:07:11;;;;;;;;;;;;;;;17.53;56.49;100597.84;5010334;28;1293;-72
2020/12/27 10:09:37;;;;;;;;;;;;;;;17.55;56.30;100596.00;4976461;28;1403;-73
2020/12/27 10:12:05;;;;;;;;;;;;;;;17.60;56.37;100596.59;5009401;28;1573;-70
2020/12/27 10:14:31;;;;;;;;;;;;;;;17.57;56.77;100604.66;5010751;28;1496;-73
2020/12/27 10:17:00;;;;;;;;;;;;;;;17.66;56.46;100606.81;4976380;28;1552;-72
2020/12/27 10:19:27;;;;;;;;;;;;;;;17.74;56.31;100612.53;4992302;28;1352;-73
2020/12/27 10:21:53;;;;;;;;;;;;;;;17.75;56.40;100611.56;4992777;28;1241;-73
2020/12/27 10:24:23;;;;;;;;;;;;;;;17.79;56.09;100593.81;4992444;28;1910;-73
2020/12/27 10:26:52;;;;;;;;;;;;;;;17.85;56.17;100598.75;5010688;28;1221;-72
2020/12/27 10:29:19;;;;;;;;;;;;;;;17.81;55.77;100603.31;5010538;28;1491;-73
2020/12/27 10:31:51;;;;;;;;;;;;;;;17.91;55.13;100594.00;5011365;28;1668;-74
2020/12/27 10:34:18;;;;;;;;;;;;;;;17.89;54.74;100593.22;5010299;28;1127;-72
2020/12/27 10:36:48;;;;;;;;;;;;;;;17.75;54.26;100577.31;5010319;28;1265;-73
2020/12/27 10:39:15;;;;;;;;;;;;;;;17.71;54.10;100575.81;5010648;28;1055;-74
2020/12/27 10:41:42;;;;;;;;;;;;;;;17.62;53.39;100564.91;5010135;28;1261;-75
2020/12/27 10:44:08;;;;;;;;;;;;;;;17.59;52.22;100560.69;5010446;28;1918;-74
2020/12/27 10:46:35;;;;;;;;;;;;;;;17.55;52.46;100564.41;4992499;28;1595;-73
2020/12/27 10:49:01;;;;;;;;;;;;;;;17.54;55.31;100538.97;5010311;28;1413;-70
2020/12/27 10:51:33;;;;;;;;;;;;;;;17.45;53.68;100542.94;4992363;28;1225;-70
2020/12/27 10:54:00;;;;;;;;;;;;;;;17.35;53.13;100525.13;5010012;28;1070;-72
2020/12/27 10:56:26;;;;;;;;;;;;;;;17.26;53.15;100523.00;5009205;28;1210;-71
2020/12/27 10:58:52;;;;;;;;;;;;;;;17.18;55.24;100519.91;5007453;28;1306;-72
2020/12/27 11:01:19;;;;;;;;;;;;;;;17.12;55.35;100509.69;5009124;28;1268;-72
2020/12/27 11:03:45;;;;;;;;;;;;;;;17.07;55.34;100502.06;4991810;28;1910;-71
2020/12/27 11:06:12;;;;;;;;;;;;;;;17.02;55.30;100495.34;4991888;28;1185;-71
2020/12/27 11:08:38;;;;;;;;;;;;;;;16.97;55.27;100481.56;5009779;28;1348;-72
2020/12/27 11:11:07;;;;;;;;;;;;;;;16.93;55.08;100480.91;4992024;28;1361;-72
2020/12/27 11:13:33;;;;;;;;;;;;;;;16.90;55.15;100475.81;5009680;28;1221;-71
2020/12/27 11:16:00;;;;;;;;;;;;;;;16.85;55.38;100478.69;5009780;28;811;-71
2020/12/27 11:18:26;;;;;;;;;;;;;;;16.80;55.07;100470.19;5008992;28;1229;-70
2020/12/27 11:20:52;;;;;;;;;;;;;;;16.77;54.83;100451.94;5008992;28;1578;-71
2020/12/27 11:23:19;;;;;;;;;;;;;;;16.78;54.59;100452.75;4991276;28;2011;-72
2020/12/27 11:25:45;;;;;;;;;;;;;;;16.73;54.99;100457.44;5008876;28;799;-72
2020/12/27 11:28:11;;;;;;;;;;;;;;;16.71;54.75;100439.13;4990864;28;1246;-73
2020/12/27 11:30:38;;;;;;;;;;;;;;;16.68;54.74;100417.38;4991331;28;784;-72
2020/12/27 11:33:05;;;;;;;;;;;;;;;16.67;54.70;100406.00;5007156;28;1271;-71
2020/12/27 11:35:45;;;;;;;;;;;;;;;16.66;54.72;100403.44;4993567;28;1561;-71
2020/12/27 11:38:12;;;;;;;;;;;;;;;16.64;54.74;100400.91;5009263;28;1213;-71
2020/12/27 11:40:38;;;;;;;;;;;;;;;16.62;54.55;100381.75;5009086;28;854;-72
2020/12/27 11:43:04;;;;;;;;;;;;;;;16.64;54.90;100363.25;5009110;28;1914;-73
2020/12/27 11:45:31;;;;;;;;;;;;;;;16.63;54.73;100346.59;5008865;28;783;-72
2020/12/27 11:47:58;;;;;;;;;;;;;;;16.62;54.28;100339.66;5008640;28;1245;-72
2020/12/27 11:50:25;;;;;;;;;;;;;;;16.61;54.41;100348.47;5008791;28;780;-72
2020/12/27 11:52:51;;;;;;;;;;;;;;;16.62;54.47;100339.66;4975041;28;1364;-71
2020/12/27 11:55:17;;;;;;;;;;;;;;;16.61;54.43;100337.97;5008305;28;779;-72
2020/12/27 11:57:43;;;;;;;;;;;;;;;16.60;54.17;100324.88;5008249;28;1237;-71
2020/12/27 12:00:10;;;;;;;;;;;;;;;16.59;54.23;100308.28;4987745;28;747;-72
2020/12/27 12:02:37;;;;;;;;;;;;;;;16.62;54.16;100308.13;4988819;28;1367;-71
2020/12/27 12:05:04;;;;;;;;;;;;;;;16.63;54.36;100304.53;4971350;28;1977;-71
2020/12/27 12:07:30;;;;;;;;;;;;;;;16.61;54.27;100290.63;4970828;28;1365;-72
2020/12/27 12:09:56;;;;;;;;;;;;;;;16.61;54.03;100285.38;4993122;28;1310;-71
2020/12/27 12:12:23;;;;;;;;;;;;;;;16.63;54.09;100278.22;5008730;28;1335;-70
2020/12/27 12:14:49;;;;;;;;;;;;;;;16.64;54.18;100269.41;5008735;28;1181;-72
2020/12/27 12:17:15;;;;;;;;;;;;;;;16.63;54.22;100261.59;4990447;28;1324;-72
2020/12/27 12:19:42;;;;;;;;;;;;;;;16.62;53.90;100260.78;5008167;28;1499;-71
2020/12/27 12:22:08;;;;;;;;;;;;;;;16.65;54.02;100247.47;4989773;28;1237;-71
2020/12/27 12:24:35;;;;;;;;;;;;;;;16.67;54.04;100232.44;4989690;28;1919;-72
2020/12/27 12:27:01;;;;;;;;;;;;;;;16.65;54.16;100226.41;4989688;28;1339;-71
2020/12/27 12:29:27;;;;;;;;;;;;;;;16.66;53.82;100217.56;5008274;28;1014;-72
2020/12/27 12:31:53;;;;;;;;;;;;;;;16.68;53.92;100205.22;4990038;28;1253;-71
2020/12/27 12:34:20;;;;;;;;;;;;;;;16.71;53.85;100202.41;5008043;28;1128;-71
2020/12/27 12:36:49;;;;;;;;;;;;;;;16.71;54.01;100184.00;5008030;28;1225;-72
2020/12/27 12:39:16;;;;;;;;;;;;;;;16.70;53.93;100174.41;4990846;28;1148;-71
2020/12/27 12:41:42;;;;;;;;;;;;;;;16.74;53.67;100152.25;5008324;28;1249;-72
2020/12/27 12:44:09;;;;;;;;;;;;;;;16.75;53.70;100147.81;4990257;28;1985;-72
2020/12/27 12:46:35;;;;;;;;;;;;;;;16.75;53.75;100143.41;5008335;28;1240;-71
2020/12/27 12:49:01;;;;;;;;;;;;;;;16.74;53.74;100139.09;5007639;28;1658;-73
2020/12/27 12:51:28;;;;;;;;;;;;;;;16.78;53.64;100131.84;5007549;28;1340;-71
2020/12/27 12:53:55;;;;;;;;;;;;;;;16.79;53.81;100120.41;4990166;28;1078;-72